Terminal Aerodrome Forecast
Issued by NWS Louisville, KY

Home | Current Version | Previous Version | Text Only | Print | Product List | Glossary On
Versions: 1 2 3 4 5 6 7 8 9 10 11 12 13 14 15
000
FTUS43 KLMK 162300
TAFBWG
TAF
KBWG 162333Z 1700/1724 29010G15KT P6SM OVC021
     FM170400 30006KT P6SM OVC016
     FM171500 30005KT P6SM SCT020=

USA.gov is the U.S. government's official web portal to all federal, state and local government web resources and services.